x

Long Key, Fl (lonf1) Weather Station

3:00pm - Tue 27th Jan 2015 All times are CST. -5 hours from GMT.

  • Wind
    17mph, 20mph gusts
  • Sea Temp 68°f
  • Air Temp 64°f
  • Sea Pressure 1017.5mb
  • Long Key, Fl
  • Long Key, Fl

More Historic Weather Station data

Upgrade to MSW Pro to gain access to the past 30 days of data for over 8000 Wavebouys and Weather Stations around the globe.

Join Pro

Comparision Forecast

View Surf forecast
   
Tue 01/27 3:00pm 17 20 mph 1017.5mb 68f 64f
2:00pm 15 16 mph 1017.9mb 68f 63f
1:00pm 8 9 mph 1018.7mb 68f 63f
12:00pm 9 10 mph 1019.6mb 68f 61f
11:00am 11 15 mph 1019.8mb 67f 61f
10:00am 14 16 mph 1019.6mb 67f 60f
9:00am 14 16 mph 1019mb 67f 60f
8:00am 15 17 mph 1018.3mb 67f 61f
7:00am 15 17 mph 1017.6mb 67f 64f
6:00am 18 21 mph 1016.9mb 67f 65f
5:00am 18 21 mph 1016.4mb 67f 65f
4:00am 22 25 mph 1016.3mb 67f 65f
3:00am 17 21 mph 1016.4mb 67f 65f
2:00am 22 24 mph 1016.5mb 67f 66f
1:00am 24 26 mph 1016.5mb 68f 67f
12:00am 22 24 mph 1016.5mb 68f 67f
Mon 01/26 11:00pm 25 28 mph 1016.4mb 68f 67f
10:00pm 23 26 mph 1016.4mb 68f 68f
9:00pm 21 24 mph 1016.2mb 68f 68f
8:00pm 23 28 mph 1015.7mb 69f 68f
7:00pm 23 26 mph 1015.3mb 69f 68f
6:00pm 24 29 mph 1014.9mb 69f 69f
5:00pm 26 30 mph 1014.3mb 69f 69f
4:00pm 24 29 mph 1013.8mb 69f 69f
3:00pm 21 24 mph 1013.8mb 69f 69f
2:00pm 18 22 mph 1013.9mb 69f 68f
1:00pm 23 26 mph 1014.7mb 69f 68f
12:00pm 23 25 mph 1015.2mb 69f 71f
11:00am 18 21 mph 1016.4mb 68f 71f
10:00am 15 17 mph 1016.9mb 68f 69f
9:00am 16 18 mph 1016.7mb 68f 69f
8:00am 15 17 mph 1016.2mb 68f 69f
7:00am 16 17 mph 1016.1mb 68f 68f
6:00am 20 22 mph 1015.8mb 69f 68f
5:00am 17 20 mph 1015.8mb 69f 68f
4:00am 15 17 mph 1016mb 69f 67f
3:00am 14 16 mph 1015.8mb 69f 66f
2:00am 13 15 mph 1016.2mb 69f 66f
1:00am 10 11 mph 1016.9mb 69f 65f
12:00am 10 11 mph 1017.8mb 69f 65f
Sun 01/25 11:00pm 13 14 mph 1018.7mb 70f 65f
10:00pm 14 15 mph 1018.4mb 70f 65f
9:00pm 13 15 mph 1018.5mb 70f 65f
8:00pm 14 16 mph 1018.5mb 70f 65f
7:00pm 11 13 mph 1017.7mb 71f 65f
6:00pm 7 8 mph 1017mb 71f 65f
5:00pm 9 11 mph 1016.7mb 71f 65f
4:00pm 9 11 mph 1016.8mb 71f 65f
3:00pm 6 7 mph 1017mb 71f 64f
2:00pm 5 7 mph 1017.7mb 70f 63f
1:00pm 9 10 mph 1018.7mb 70f 62f
12:00pm 11 14 mph 1020mb 70f 61f
11:00am 13 16 mph 1019.8mb 70f 59f
10:00am 15 18 mph 1020mb 70f 58f
9:00am 15 18 mph 1019.9mb 70f 58f
8:00am 16 20 mph 1019.4mb 70f 59f
7:00am 17 20 mph 1018.9mb 70f 58f
6:00am 17 20 mph 1018.3mb 70f 59f
5:00am 16 18 mph 1017.8mb 71f 60f
4:00am 14 16 mph 1017.9mb 71f 61f
3:00am 13 15 mph 1017.6mb 71f 62f
2:00am 15 17 mph 1017.6mb 71f 63f
1:00am 16 18 mph 1017.4mb 72f 64f
12:00am 14 16 mph 1017.5mb 72f 64f
Sat 01/24 11:00pm 15 16 mph 1017.8mb 72f 65f
10:00pm 21 23 mph 1017.4mb 72f 66f
9:00pm 20 23 mph 1017.2mb 73f 67f
8:00pm 23 25 mph 1016.7mb 73f 68f
7:00pm 28 30 mph 1016.3mb 73f 68f
6:00pm 25 30 mph 1015.5mb 73f 69f
5:00pm 26 30 mph 1015.1mb 74f 69f
4:00pm 26 30 mph 1014.7mb 74f 69f
3:00pm 29 33 mph 1014.7mb 74f 68f
2:00pm 26 30 mph 1014.7mb 74f 69f
1:00pm 28 31 mph 1015.1mb 74f 70f
12:00pm 17 20 mph 1016.1mb 74f 73f
11:00am 7 9 mph 1016.5mb 74f 76f
10:00am 10 11 mph 1015.7mb 74f 75f
9:00am 9 10 mph 1016.6mb 74f 75f
8:00am 15 16 mph 1016.4mb 74f 76f
7:00am 15 16 mph 1015.5mb 74f 76f
6:00am 14 16 mph 1015mb 74f 76f
5:00am 17 20 mph 1014.4mb 74f 76f
4:00am 15 17 mph 1014.7mb 74f 76f
3:00am 17 20 mph 1015.1mb 74f 76f
2:00am 16 18 mph 1015.2mb 74f 76f
1:00am 16 17 mph 1015.6mb 74f 76f
12:00am 18 21 mph 1016mb 74f 76f
Fri 01/23 11:00pm 16 18 mph 1016.7mb 74f 76f
10:00pm 15 16 mph 1017mb 74f 76f